Time;durP1;ratioP1;P1;durP2;ratioP2;P2;SDS_P1;SDS_P2;PMS_P1;PMS_P2;Temp;Humidity;BMP_temperature;BMP_pressure;BME280_temperature;BME280_humidity;BME280_pressure;Samples;Min_cycle;Max_cycle;Signal;HPM_P1;HPM_P2
2023/02/14 00:01:49;;;;;;;21.52;13.90;;;;;;;2.76;52.72;96364.00;5065584;28;20028;-76
2023/02/14 00:04:16;;;;;;;23.95;14.93;;;;;;;2.80;52.45;96359.41;5065601;28;20112;-78
2023/02/14 00:06:41;;;;;;;24.63;14.63;;;;;;;2.86;52.27;96354.50;5065168;28;20153;-77
2023/02/14 00:09:10;;;;;;;23.13;13.90;;;;;;;2.82;52.38;96350.94;5065421;28;20046;-77
2023/02/14 00:11:35;;;;;;;20.95;14.10;;;;;;;2.86;52.30;96359.94;5064343;28;20438;-76
2023/02/14 00:16:45;;;;;;;22.27;13.13;;;;;;;2.77;52.46;96362.06;5065138;28;20079;-78
2023/02/14 00:19:12;;;;;;;22.52;13.95;;;;;;;2.78;52.46;96363.63;5065068;28;20032;-78
2023/02/14 00:21:38;;;;;;;22.67;13.90;;;;;;;2.76;52.83;96366.72;5064705;28;20365;-79
2023/02/14 00:24:09;;;;;;;26.38;14.60;;;;;;;2.73;52.97;96353.03;5064846;28;20028;-76
2023/02/14 00:26:37;;;;;;;23.40;13.75;;;;;;;2.66;52.97;96350.94;5065465;28;20025;-77
2023/02/14 00:29:06;;;;;;;22.33;13.70;;;;;;;2.59;53.39;96345.34;5065800;28;20032;-78
2023/02/14 00:31:32;;;;;;;23.77;14.88;;;;;;;2.58;53.74;96355.41;5069195;28;20064;-78
2023/02/14 00:33:57;;;;;;;22.90;14.93;;;;;;;2.63;53.64;96343.50;5064606;28;20055;-77
2023/02/14 00:36:23;;;;;;;23.13;14.70;;;;;;;2.62;53.66;96341.91;5048521;28;20024;-77
2023/02/14 00:38:48;;;;;;;22.63;14.90;;;;;;;2.62;54.04;96350.84;5063352;28;20112;-78
2023/02/14 00:41:18;;;;;;;20.58;13.45;;;;;;;2.64;54.19;96345.88;5065973;28;20048;-78
2023/02/14 00:43:52;;;;;;;26.58;14.38;;;;;;;2.62;54.24;96344.63;5062789;28;20700;-76
2023/02/14 00:46:19;;;;;;;24.23;14.07;;;;;;;2.60;54.29;96353.13;5045942;28;20036;-78
2023/02/14 00:48:45;;;;;;;27.55;15.05;;;;;;;2.59;54.55;96357.00;5063894;28;20107;-78
2023/02/14 00:51:11;;;;;;;23.30;14.13;;;;;;;2.59;54.54;96345.34;5063621;28;20036;-78
2023/02/14 00:53:37;;;;;;;23.45;14.60;;;;;;;2.62;54.64;96345.41;5067282;28;20025;-79
2023/02/14 00:56:03;;;;;;;24.40;15.07;;;;;;;2.72;54.21;96337.88;5064775;28;20029;-78
2023/02/14 00:58:28;;;;;;;22.95;14.07;;;;;;;2.73;54.25;96334.03;5065304;28;20032;-78
2023/02/14 01:00:54;;;;;;;23.23;14.70;;;;;;;2.74;54.19;96330.16;5063649;28;20105;-77
2023/02/14 01:03:19;;;;;;;23.13;14.60;;;;;;;2.71;54.19;96330.88;5066185;28;20166;-78
2023/02/14 01:05:47;;;;;;;24.50;14.52;;;;;;;2.74;54.23;96330.94;5063866;28;20031;-77
2023/02/14 01:08:12;;;;;;;24.27;13.95;;;;;;;2.70;54.05;96319.25;5063490;28;20457;-78
2023/02/14 01:10:38;;;;;;;24.40;14.15;;;;;;;2.75;54.11;96331.75;5047720;28;20025;-78
2023/02/14 01:13:04;;;;;;;22.92;14.98;;;;;;;2.71;54.09;96328.16;5062882;28;20383;-77
2023/02/14 01:15:30;;;;;;;24.08;15.45;;;;;;;2.69;54.29;96327.72;5065716;28;20032;-77
2023/02/14 01:17:57;;;;;;;25.27;15.93;;;;;;;2.64;54.50;96323.38;5062922;28;20024;-77
2023/02/14 01:20:22;;;;;;;24.02;14.93;;;;;;;2.57;54.58;96307.66;5064323;28;20033;-78
2023/02/14 01:22:48;;;;;;;23.85;14.65;;;;;;;2.64;54.56;96312.50;5062715;28;20109;-76
2023/02/14 01:25:13;;;;;;;23.45;13.73;;;;;;;2.57;54.72;96315.03;5047028;28;20078;-77
2023/02/14 01:27:38;;;;;;;23.35;14.57;;;;;;;2.51;54.89;96313.72;5068021;28;20032;-78
2023/02/14 01:30:04;;;;;;;24.08;15.45;;;;;;;2.55;54.74;96315.38;5064676;28;20025;-79
2023/02/14 01:32:31;;;;;;;22.25;14.52;;;;;;;2.62;54.52;96312.06;5064387;28;20119;-78
2023/02/14 01:34:56;;;;;;;24.60;15.23;;;;;;;2.65;54.46;96311.34;5062435;28;20083;-77
2023/02/14 01:37:21;;;;;;;24.75;16.05;;;;;;;2.72;54.21;96314.22;5063954;28;20404;-78
2023/02/14 01:39:47;;;;;;;23.58;14.23;;;;;;;2.73;54.28;96301.44;5063655;28;20032;-78
2023/02/14 01:42:12;;;;;;;23.95;15.82;;;;;;;2.74;54.25;96292.16;5063563;28;20098;-76
2023/02/14 01:44:37;;;;;;;25.45;15.68;;;;;;;2.71;54.39;96290.94;5063968;28;20446;-77
2023/02/14 01:47:06;;;;;;;25.65;15.07;;;;;;;2.73;54.15;96290.59;5064379;28;20025;-78
2023/02/14 01:49:36;;;;;;;26.13;15.00;;;;;;;2.71;54.61;96282.78;5065195;28;20021;-77
2023/02/14 01:52:06;;;;;;;25.02;14.80;;;;;;;2.71;54.37;96280.06;5064074;28;20071;-78
2023/02/14 01:54:35;;;;;;;24.42;15.77;;;;;;;2.69;54.22;96276.13;5065630;28;20534;-78
2023/02/14 01:57:04;;;;;;;24.42;15.05;;;;;;;2.72;54.08;96278.94;5062414;28;20021;-78
2023/02/14 01:59:36;;;;;;;23.80;15.32;;;;;;;2.69;54.21;96266.06;5064924;28;20042;-77
2023/02/14 02:02:02;;;;;;;25.38;14.85;;;;;;;2.67;54.34;96271.06;5064325;28;20066;-77
2023/02/14 02:04:50;;;;;;;24.80;15.13;;;;;;;2.64;54.20;96283.41;5062584;28;20052;-78
2023/02/14 02:07:23;;;;;;;26.08;15.10;;;;;;;2.69;54.28;96278.84;5065414;28;20162;-77
2023/02/14 02:09:55;;;;;;;24.48;15.30;;;;;;;2.71;54.13;96282.00;5045673;28;20032;-78
2023/02/14 02:12:21;;;;;;;23.50;15.40;;;;;;;2.70;54.16;96277.72;5063358;28;20020;-78
2023/02/14 02:14:49;;;;;;;24.73;16.10;;;;;;;2.72;54.11;96270.00;5062468;28;20035;-78
2023/02/14 02:17:18;;;;;;;21.52;14.52;;;;;;;2.74;54.11;96276.63;5062922;28;20115;-77
2023/02/14 02:20:02;;;;;;;23.70;14.52;;;;;;;2.72;54.08;96267.28;5064575;28;20070;-77
2023/02/14 02:23:04;;;;;;;23.75;14.88;;;;;;;2.73;54.15;96274.28;5066103;28;20036;-79
2023/02/14 02:25:40;;;;;;;25.85;15.80;;;;;;;2.80;53.99;96277.94;5067023;28;20588;-76
2023/02/14 02:28:39;;;;;;;25.00;15.95;;;;;;;2.89;53.64;96275.03;5066814;28;20039;-76
2023/02/14 02:31:24;;;;;;;26.52;15.55;;;;;;;2.87;53.65;96256.41;5048863;28;20040;-78
2023/02/14 02:34:01;;;;;;;23.98;14.98;;;;;;;2.91;53.54;96259.16;5067716;28;20086;-76
2023/02/14 02:36:41;;;;;;;23.65;15.50;;;;;;;2.95;53.42;96248.38;5067631;28;20607;-78
2023/02/14 02:39:12;;;;;;;25.55;15.43;;;;;;;2.93;53.36;96249.53;5066148;28;20062;-78
2023/02/14 02:41:52;;;;;;;26.58;14.68;;;;;;;2.94;53.47;96244.88;5068204;28;20055;-78
2023/02/14 02:45:00;;;;;;;23.15;15.25;;;;;;;2.86;53.51;96226.84;5065998;28;20032;-79
2023/02/14 02:47:39;;;;;;;25.27;14.65;;;;;;;2.78;53.80;96241.44;5065366;28;20133;-78
2023/02/14 02:53:27;;;;;;;25.45;14.02;;;;;;;2.75;53.60;96239.41;5050478;28;20029;-79
2023/02/14 02:58:56;;;;;;;22.85;14.63;;;;;;;2.71;53.87;96242.06;5053783;28;20090;-76
2023/02/14 03:01:37;;;;;;;24.52;14.10;;;;;;;2.72;53.71;96240.13;5047583;28;20148;-79
2023/02/14 03:06:51;;;;;;;25.55;14.07;;;;;;;2.69;53.87;96248.97;5050921;28;20497;-79
2023/02/14 03:09:19;;;;;;;24.50;14.82;;;;;;;2.70;53.96;96253.28;5047735;28;20576;-77
2023/02/14 03:12:10;;;;;;;24.70;15.32;;;;;;;2.63;54.10;96251.16;5065164;28;20055;-78
2023/02/14 03:14:44;;;;;;;21.75;13.07;;;;;;;2.64;54.24;96247.34;5019844;28;20097;-78
2023/02/14 03:17:24;;;;;;;23.40;13.95;;;;;;;2.66;54.15;96245.03;5066213;28;20039;-75
2023/02/14 03:20:16;;;;;;;22.65;13.07;;;;;;;2.70;54.07;96237.00;5050766;28;20033;-78
2023/02/14 03:22:44;;;;;;;23.50;12.38;;;;;;;2.74;54.00;96232.41;5048424;28;20426;-78
2023/02/14 03:25:30;;;;;;;23.60;14.68;;;;;;;2.74;54.00;96226.97;5067853;28;20059;-76
2023/02/14 03:28:22;;;;;;;21.98;13.80;;;;;;;2.72;53.87;96219.19;5065023;28;20032;-78
2023/02/14 03:30:54;;;;;;;19.92;12.40;;;;;;;2.70;53.90;96210.63;5048484;28;20459;-78
2023/02/14 03:33:41;;;;;;;20.33;12.32;;;;;;;2.65;54.05;96206.25;5066242;28;20411;-79
2023/02/14 03:36:16;;;;;;;21.67;12.73;;;;;;;2.56;54.24;96213.78;5065649;28;20032;-77
2023/02/14 03:38:47;;;;;;;20.27;12.43;;;;;;;2.50;54.47;96217.13;5065843;28;20103;-78
2023/02/14 03:41:21;;;;;;;21.88;12.40;;;;;;;2.50;54.42;96234.22;5048115;28;20147;-77
2023/02/14 03:43:50;;;;;;;23.10;12.85;;;;;;;2.49;54.42;96226.44;5064661;28;20415;-78
2023/02/14 03:46:21;;;;;;;21.52;13.10;;;;;;;2.43;54.65;96219.69;5065922;28;20032;-78
2023/02/14 03:48:49;;;;;;;24.15;13.27;;;;;;;2.43;54.61;96211.56;5065500;28;20054;-78
2023/02/14 03:51:15;;;;;;;21.63;12.43;;;;;;;2.45;54.41;96218.19;5065549;28;20040;-76
2023/02/14 03:53:45;;;;;;;19.50;12.77;;;;;;;2.49;54.17;96210.13;5064053;28;20143;-77
2023/02/14 03:56:20;;;;;;;23.50;12.88;;;;;;;2.50;54.02;96204.34;5065612;28;20052;-78
2023/02/14 03:58:48;;;;;;;22.40;12.77;;;;;;;2.55;53.92;96197.88;5066014;28;20025;-77
2023/02/14 04:01:20;;;;;;;23.52;13.35;;;;;;;2.55;53.89;96192.44;5064513;28;20043;-78
2023/02/14 04:03:46;;;;;;;25.10;13.65;;;;;;;2.48;54.05;96198.50;5048774;28;20550;-77
2023/02/14 04:06:11;;;;;;;18.92;11.95;;;;;;;2.47;54.01;96190.72;5064063;28;20024;-78
2023/02/14 04:08:37;;;;;;;23.15;13.07;;;;;;;2.46;54.16;96191.84;5065682;28;20021;-78
2023/02/14 04:11:03;;;;;;;24.50;14.05;;;;;;;2.45;54.13;96196.47;5063587;28;20495;-79
2023/02/14 04:13:29;;;;;;;21.73;13.23;;;;;;;2.45;54.21;96187.56;5065377;28;20032;-79
2023/02/14 04:15:54;;;;;;;22.27;13.57;;;;;;;2.45;54.13;96195.69;5066985;28;20039;-78
2023/02/14 04:21:05;;;;;;;21.73;12.85;;;;;;;2.44;54.19;96191.41;5025271;28;20048;-78
2023/02/14 04:23:31;;;;;;;22.38;12.45;;;;;;;2.42;54.10;96188.28;5065329;28;20024;-77
2023/02/14 04:25:56;;;;;;;20.95;13.05;;;;;;;2.41;54.11;96187.50;5064877;28;20036;-77
2023/02/14 04:28:22;;;;;;;22.38;12.45;;;;;;;2.41;54.03;96192.91;5066471;28;20031;-76
2023/02/14 04:30:47;;;;;;;20.35;12.82;;;;;;;2.39;54.09;96190.53;5066088;28;20031;-77
2023/02/14 04:33:13;;;;;;;20.77;12.80;;;;;;;2.33;54.03;96191.94;5066947;28;20084;-79
2023/02/14 04:35:38;;;;;;;21.30;12.52;;;;;;;2.30;54.19;96183.75;5048046;28;20112;-79
2023/02/14 04:38:04;;;;;;;19.20;11.88;;;;;;;2.41;54.12;96190.19;5048343;28;20016;-78
2023/02/14 04:40:29;;;;;;;21.13;12.10;;;;;;;2.37;54.18;96192.03;5064890;28;20490;-78
2023/02/14 04:42:55;;;;;;;23.92;12.85;;;;;;;2.33;54.03;96185.75;5064472;28;20055;-79
2023/02/14 04:45:21;;;;;;;20.55;11.70;;;;;;;2.42;53.88;96185.56;5063258;28;20059;-78
2023/02/14 04:47:46;;;;;;;18.95;12.68;;;;;;;2.41;53.64;96176.63;5064015;28;20056;-77
2023/02/14 04:50:12;;;;;;;20.45;12.80;;;;;;;2.42;53.68;96170.06;5063331;28;20557;-76
2023/02/14 04:52:38;;;;;;;19.60;11.60;;;;;;;2.36;53.66;96164.13;5063998;28;20032;-77
2023/02/14 04:55:04;;;;;;;21.60;11.90;;;;;;;2.31;53.82;96169.81;5063976;28;20177;-78
2023/02/14 04:57:30;;;;;;;25.02;12.80;;;;;;;2.27;53.96;96162.72;5063183;28;20157;-78
2023/02/14 04:59:55;;;;;;;21.85;13.02;;;;;;;2.30;53.97;96170.19;5064657;28;20032;-77
2023/02/14 05:02:21;;;;;;;21.33;12.43;;;;;;;2.26;54.24;96169.31;5064150;28;20025;-76
2023/02/14 05:04:46;;;;;;;15.77;10.45;;;;;;;2.23;54.27;96172.72;5065603;28;20443;-77
2023/02/14 05:07:12;;;;;;;16.23;11.38;;;;;;;2.27;54.25;96168.94;5064452;28;20488;-79
2023/02/14 05:09:37;;;;;;;17.15;10.68;;;;;;;2.30;54.15;96173.69;5064641;28;20032;-76
2023/02/14 05:12:03;;;;;;;17.80;11.10;;;;;;;2.31;54.10;96169.03;5066396;28;20036;-78
2023/02/14 05:14:28;;;;;;;18.95;11.80;;;;;;;2.33;54.23;96174.88;5064846;28;20067;-77
2023/02/14 05:16:53;;;;;;;19.42;11.48;;;;;;;2.31;54.21;96177.19;5065503;28;20036;-79
2023/02/14 05:19:20;;;;;;;18.33;12.48;;;;;;;2.36;54.00;96168.75;5063044;28;20056;-77
2023/02/14 05:21:46;;;;;;;20.45;11.43;;;;;;;2.43;53.78;96168.91;5066628;28;20426;-78
2023/02/14 05:24:11;;;;;;;22.30;11.60;;;;;;;2.45;53.63;96166.63;5052298;28;20032;-77
2023/02/14 05:26:37;;;;;;;23.55;11.02;;;;;;;2.47;53.62;96158.16;5067000;28;20028;-78
2023/02/14 05:29:02;;;;;;;17.30;11.00;;;;;;;2.40;53.74;96164.97;5046478;28;20028;-79
2023/02/14 05:31:28;;;;;;;16.60;10.98;;;;;;;2.43;53.72;96173.56;5065409;28;20032;-79
2023/02/14 05:33:53;;;;;;;17.02;10.68;;;;;;;2.47;53.49;96172.50;5065259;28;20146;-79
2023/02/14 05:36:18;;;;;;;20.88;12.30;;;;;;;2.44;53.40;96164.28;5064962;28;20103;-78
2023/02/14 05:38:44;;;;;;;19.75;11.40;;;;;;;2.43;53.91;96179.78;5066092;28;20025;-79
2023/02/14 05:41:09;;;;;;;20.83;11.45;;;;;;;2.39;53.69;96168.81;5062059;28;20080;-77
2023/02/14 05:43:35;;;;;;;21.80;11.10;;;;;;;2.43;53.69;96168.13;5064029;28;20102;-79
2023/02/14 05:46:00;;;;;;;20.42;11.07;;;;;;;2.43;53.67;96166.19;5062399;28;20024;-77
2023/02/14 05:48:25;;;;;;;18.92;10.57;;;;;;;2.48;53.43;96165.16;5064943;28;20039;-76
2023/02/14 05:50:51;;;;;;;22.48;12.98;;;;;;;2.48;53.55;96157.78;5063871;28;20092;-78
2023/02/14 05:53:16;;;;;;;16.00;10.77;;;;;;;2.46;53.77;96160.03;5046890;28;20033;-79
2023/02/14 05:55:42;;;;;;;27.60;13.70;;;;;;;2.50;53.72;96162.84;5064204;28;20111;-78
2023/02/14 05:58:07;;;;;;;23.38;12.50;;;;;;;2.54;53.45;96163.72;5065907;28;20024;-78
2023/02/14 06:00:33;;;;;;;20.70;12.27;;;;;;;2.54;53.54;96164.50;5068485;28;20055;-77
2023/02/14 06:02:59;;;;;;;18.83;11.45;;;;;;;2.55;53.63;96165.28;5066115;28;20021;-77
2023/02/14 06:05:25;;;;;;;22.52;11.55;;;;;;;2.52;53.61;96153.19;5051429;28;20028;-78
2023/02/14 06:07:51;;;;;;;18.70;10.75;;;;;;;2.53;53.80;96167.59;5071326;28;20016;-74
2023/02/14 06:10:17;;;;;;;19.08;11.55;;;;;;;2.54;53.75;96164.50;5068231;28;20428;-77
2023/02/14 06:12:44;;;;;;;20.05;11.77;;;;;;;2.59;53.54;96174.31;5068540;28;20563;-78
2023/02/14 06:15:09;;;;;;;19.02;11.18;;;;;;;2.65;53.54;96170.94;5068371;28;20025;-76
2023/02/14 06:17:35;;;;;;;19.17;10.85;;;;;;;2.68;53.46;96166.72;5051090;28;20501;-78
2023/02/14 06:20:00;;;;;;;18.45;11.80;;;;;;;2.67;53.41;96167.88;5067187;28;20122;-77
2023/02/14 06:22:26;;;;;;;20.92;11.60;;;;;;;2.70;53.33;96169.91;5069341;28;20494;-78
2023/02/14 06:24:51;;;;;;;17.95;11.80;;;;;;;2.81;53.35;96183.66;5066056;28;20060;-78
2023/02/14 06:27:16;;;;;;;19.08;11.95;;;;;;;2.84;53.43;96174.81;5069577;28;20039;-78
2023/02/14 06:29:42;;;;;;;20.55;12.15;;;;;;;2.90;53.07;96178.81;5068444;28;20071;-79
2023/02/14 06:32:07;;;;;;;21.05;12.82;;;;;;;2.89;53.20;96174.53;5066752;28;20563;-79
2023/02/14 06:34:33;;;;;;;19.25;13.73;;;;;;;2.95;53.05;96177.75;5068536;28;20028;-79
2023/02/14 06:36:59;;;;;;;25.02;13.38;;;;;;;3.04;52.94;96168.25;5066332;28;20062;-77
2023/02/14 06:39:24;;;;;;;21.08;13.80;;;;;;;3.09;52.86;96164.44;5067939;28;20029;-77
2023/02/14 06:41:50;;;;;;;23.17;13.40;;;;;;;3.16;52.73;96175.47;5065103;28;20068;-79
2023/02/14 06:44:15;;;;;;;22.92;14.23;;;;;;;3.16;52.73;96176.25;5069074;28;20032;-77
2023/02/14 06:46:40;;;;;;;22.35;14.73;;;;;;;3.27;52.49;96176.47;5067706;28;20399;-78
2023/02/14 06:49:06;;;;;;;25.02;14.27;;;;;;;3.34;52.69;96173.09;5068405;28;20036;-78
2023/02/14 06:51:31;;;;;;;23.77;14.38;;;;;;;3.35;52.59;96171.94;5066358;28;20032;-78
2023/02/14 06:53:56;;;;;;;24.02;14.23;;;;;;;3.42;52.67;96172.06;5067775;28;20051;-76
2023/02/14 06:56:22;;;;;;;25.13;14.63;;;;;;;3.46;52.70;96165.56;5067428;28;20029;-77
2023/02/14 06:58:47;;;;;;;23.33;14.45;;;;;;;3.48;52.77;96170.63;5067248;28;20103;-78
2023/02/14 07:01:13;;;;;;;24.77;14.73;;;;;;;3.50;52.84;96165.63;5068530;28;20337;-78
2023/02/14 07:03:38;;;;;;;21.95;14.02;;;;;;;3.54;52.88;96165.69;5070322;28;20399;-78
2023/02/14 07:06:04;;;;;;;21.05;12.75;;;;;;;3.53;53.08;96155.94;5067250;28;20060;-77
2023/02/14 07:08:29;;;;;;;23.02;13.77;;;;;;;3.47;53.42;96153.53;5065562;28;20461;-78
2023/02/14 07:10:56;;;;;;;24.45;13.60;;;;;;;3.51;53.75;96147.38;5064409;28;20029;-76
2023/02/14 07:13:21;;;;;;;23.40;13.45;;;;;;;3.54;53.75;96144.72;5067788;28;20032;-77
2023/02/14 07:15:46;;;;;;;23.08;13.50;;;;;;;3.63;53.81;96150.72;5067942;28;20040;-77
2023/02/14 07:18:12;;;;;;;24.75;15.18;;;;;;;3.66;53.82;96152.69;5068908;28;20078;-77
2023/02/14 07:20:37;;;;;;;24.50;14.27;;;;;;;3.67;54.11;96153.47;5066803;28;20032;-77
2023/02/14 07:23:03;;;;;;;23.23;13.85;;;;;;;3.66;54.71;96160.06;5066830;28;20510;-77
2023/02/14 07:25:28;;;;;;;22.45;13.50;;;;;;;3.57;55.16;96151.38;5066607;28;20475;-78
2023/02/14 07:27:54;;;;;;;24.65;15.48;;;;;;;3.51;55.86;96161.75;5066100;28;20099;-76
2023/02/14 07:30:19;;;;;;;23.55;12.82;;;;;;;3.45;55.92;96158.56;5067172;28;20039;-78
2023/02/14 07:32:45;;;;;;;26.67;13.73;;;;;;;3.49;55.97;96168.69;5032952;28;20391;-77
2023/02/14 07:35:10;;;;;;;26.50;14.05;;;;;;;3.42;56.35;96164.69;5067953;28;20572;-77
2023/02/14 07:37:36;;;;;;;25.33;14.98;;;;;;;3.37;56.84;96162.28;5065414;28;20028;-79
2023/02/14 07:40:02;;;;;;;23.70;14.23;;;;;;;3.36;57.04;96160.72;5066802;28;20108;-79
2023/02/14 07:42:27;;;;;;;24.73;13.88;;;;;;;3.27;57.33;96156.63;5065371;28;20504;-78
2023/02/14 07:44:52;;;;;;;24.67;14.38;;;;;;;3.26;57.47;96155.06;5067764;28;20487;-78
2023/02/14 07:47:18;;;;;;;25.38;14.10;;;;;;;3.31;57.54;96166.44;5061024;28;20129;-78
2023/02/14 07:49:43;;;;;;;29.65;15.30;;;;;;;3.26;57.59;96169.44;5069454;28;20064;-77
2023/02/14 07:52:09;;;;;;;20.50;12.60;;;;;;;3.33;57.77;96168.81;5066356;28;20044;-77
2023/02/14 07:54:34;;;;;;;23.23;13.77;;;;;;;3.31;57.68;96165.66;5067633;28;20032;-81
2023/02/14 07:57:00;;;;;;;21.08;13.05;;;;;;;3.43;57.81;96179.06;5068560;28;20028;-78
2023/02/14 07:59:25;;;;;;;24.38;14.10;;;;;;;3.43;57.75;96176.34;5067801;28;20025;-79
2023/02/14 08:01:51;;;;;;;24.08;13.80;;;;;;;3.42;57.54;96180.22;5066229;28;20434;-79
2023/02/14 08:04:16;;;;;;;26.95;14.02;;;;;;;3.38;57.80;96177.47;5064849;28;20031;-78
2023/02/14 08:06:42;;;;;;;21.08;12.88;;;;;;;3.40;57.64;96185.25;5049354;28;20066;-80
2023/02/14 08:09:09;;;;;;;26.73;13.40;;;;;;;3.33;57.75;96196.78;5066200;28;20111;-79
2023/02/14 08:14:21;;;;;;;24.95;13.52;;;;;;;3.36;57.89;96200.69;5067830;28;20031;-79
2023/02/14 08:16:47;;;;;;;23.73;13.70;;;;;;;3.50;57.56;96192.00;5064176;28;20033;-79
2023/02/14 08:19:12;;;;;;;22.00;12.25;;;;;;;3.56;57.39;96201.47;5065971;28;20348;-79
2023/02/14 08:21:38;;;;;;;23.73;14.65;;;;;;;3.56;57.32;96188.66;5065101;28;20024;-78
2023/02/14 08:24:03;;;;;;;25.08;14.10;;;;;;;3.55;57.35;96203.38;5064658;28;20024;-78
2023/02/14 08:26:29;;;;;;;21.65;13.15;;;;;;;3.52;57.24;96200.59;5064761;28;20043;-78
2023/02/14 08:28:54;;;;;;;23.10;12.10;;;;;;;3.57;56.93;96198.38;5065639;28;20020;-80
2023/02/14 08:31:28;;;;;;;23.75;12.50;;;;;;;3.40;57.23;96185.25;5065311;28;20036;-79
2023/02/14 08:33:54;;;;;;;22.80;12.30;;;;;;;3.15;58.04;96198.34;5062282;28;20028;-79
2023/02/14 08:36:19;;;;;;;20.10;11.38;;;;;;;3.16;58.22;96189.06;5065480;28;20030;-78
2023/02/14 08:38:48;;;;;;;20.05;10.73;;;;;;;3.14;58.32;96186.69;5065142;28;20028;-78
2023/02/14 08:41:15;;;;;;;22.30;11.77;;;;;;;3.16;58.39;96194.50;5066273;28;20503;-78
2023/02/14 08:43:41;;;;;;;18.30;11.68;;;;;;;3.23;58.44;96204.72;5064036;28;20028;-80
2023/02/14 08:46:06;;;;;;;20.27;11.35;;;;;;;3.28;58.60;96204.44;5066319;28;20024;-80
2023/02/14 08:48:33;;;;;;;23.48;12.27;;;;;;;3.28;58.61;96207.94;5066618;28;20031;-80
2023/02/14 08:51:06;;;;;;;20.10;11.18;;;;;;;3.32;58.59;96195.19;5065456;28;20017;-80
2023/02/14 08:53:33;;;;;;;22.73;12.65;;;;;;;3.29;58.73;96204.06;5065917;28;20039;-80
2023/02/14 08:56:10;;;;;;;21.50;11.38;;;;;;;3.16;58.77;96189.84;5068406;28;20537;-79
2023/02/14 08:58:37;;;;;;;20.40;11.20;;;;;;;3.19;58.97;96191.03;5065671;28;20036;-80
2023/02/14 09:01:14;;;;;;;20.50;11.48;;;;;;;3.20;58.82;96203.47;5066230;28;20051;-78
2023/02/14 09:03:39;;;;;;;21.88;10.82;;;;;;;3.21;58.84;96210.50;5065045;28;20032;-79
2023/02/14 09:06:07;;;;;;;24.75;12.65;;;;;;;3.17;58.56;96204.22;5048896;28;20525;-79
2023/02/14 09:08:36;;;;;;;23.67;12.32;;;;;;;3.20;58.67;96203.47;5063131;28;20025;-80
2023/02/14 09:11:17;;;;;;;23.77;11.52;;;;;;;3.12;59.05;96190.91;5065024;28;20028;-80
2023/02/14 09:13:43;;;;;;;25.30;12.15;;;;;;;3.18;58.85;96189.47;5065171;28;20564;-80
2023/02/14 09:16:10;;;;;;;22.73;11.48;;;;;;;3.15;58.85;96193.72;5064487;28;20016;-80
2023/02/14 09:18:37;;;;;;;27.98;12.13;;;;;;;3.22;58.72;96190.34;5064004;28;20036;-78
2023/02/14 09:21:07;;;;;;;19.55;11.05;;;;;;;3.14;58.88;96183.19;5063215;28;20027;-79
2023/02/14 09:23:32;;;;;;;20.67;10.13;;;;;;;3.14;58.95;96178.53;5047997;28;20032;-80
2023/02/14 09:26:02;;;;;;;23.05;12.05;;;;;;;3.10;59.06;96185.06;5064411;28;20033;-80
2023/02/14 09:28:28;;;;;;;20.63;11.05;;;;;;;3.19;59.05;96180.97;5066447;28;20027;-81
2023/02/14 09:30:53;;;;;;;21.80;11.15;;;;;;;3.15;58.98;96188.28;5062959;28;20047;-80
2023/02/14 09:33:18;;;;;;;21.52;12.10;;;;;;;3.14;58.73;96192.13;5064724;28;20160;-78
2023/02/14 09:35:44;;;;;;;25.92;12.07;;;;;;;3.13;58.81;96179.69;5064263;28;20078;-80
2023/02/14 09:38:19;;;;;;;25.58;11.82;;;;;;;3.06;59.16;96179.56;5064524;28;20491;-79
2023/02/14 09:40:45;;;;;;;24.27;11.25;;;;;;;3.02;59.16;96191.47;5048386;28;20031;-80
2023/02/14 09:43:29;;;;;;;25.58;14.23;;;;;;;3.04;59.14;96187.28;5062230;28;20507;-80
2023/02/14 09:45:56;;;;;;;25.75;11.43;;;;;;;3.07;59.11;96181.13;5064869;28;20040;-79
2023/02/14 09:48:35;;;;;;;25.92;11.73;;;;;;;3.12;58.83;96175.41;5063788;28;20024;-79
2023/02/14 09:51:11;;;;;;;28.10;13.25;;;;;;;3.07;59.06;96178.41;5063405;28;20189;-80
2023/02/14 09:53:46;;;;;;;23.33;13.13;;;;;;;3.08;59.06;96177.25;5069087;28;20027;-79
2023/02/14 09:56:31;;;;;;;28.40;12.90;;;;;;;3.03;59.45;96176.75;5064732;28;20274;-80
2023/02/14 09:59:15;;;;;;;26.27;11.50;;;;;;;3.11;59.21;96170.31;5065719;28;20032;-79
2023/02/14 10:02:07;;;;;;;;;;;;;;;3.17;59.08;96163.47;5086746;28;20082;-79
2023/02/14 10:04:41;;;;;;;21.98;11.68;;;;;;;3.18;58.89;96171.25;5080544;28;19916;-80
2023/02/14 10:07:44;;;;;;;23.92;10.80;;;;;;;3.12;58.97;96161.03;5065281;28;20032;-81
2023/02/14 10:10:19;;;;;;;21.83;10.60;;;;;;;3.07;59.00;96158.59;5062592;28;20071;-82
2023/02/14 10:12:49;;;;;;;19.02;10.80;;;;;;;3.09;58.73;96157.09;5062975;28;20182;-78
2023/02/14 10:15:25;;;;;;;19.00;10.32;;;;;;;3.18;58.60;96152.22;5064152;28;20031;-81
2023/02/14 10:18:14;;;;;;;16.88;10.05;;;;;;;3.08;58.60;96158.22;5062436;28;20097;-80
2023/02/14 10:20:45;;;;;;;19.48;10.20;;;;;;;3.07;58.75;96164.81;5064874;28;20038;-80
2023/02/14 10:23:25;;;;;;;14.65;8.75;;;;;;;3.10;58.60;96153.25;5045862;28;20530;-80
2023/02/14 10:26:01;;;;;;;15.93;9.10;;;;;;;3.14;58.41;96159.50;5062462;28;20490;-80
2023/02/14 10:28:47;;;;;;;18.23;9.02;;;;;;;3.12;58.21;96140.06;5063856;28;20098;-80
2023/02/14 10:31:41;;;;;;;17.55;8.85;;;;;;;3.09;58.47;96148.94;5045116;28;20036;-79
2023/02/14 10:34:20;;;;;;;19.93;9.77;;;;;;;3.12;58.33;96163.75;5063521;28;20041;-81
2023/02/14 10:36:50;;;;;;;16.77;9.80;;;;;;;3.07;58.34;96164.03;5065071;28;20032;-79
2023/02/14 10:39:37;;;;;;;16.70;10.23;;;;;;;3.02;58.37;96154.22;5061771;28;20221;-80
2023/02/14 10:42:21;;;;;;;17.95;10.45;;;;;;;2.99;58.56;96165.03;5064671;28;20044;-81
2023/02/14 10:44:57;;;;;;;16.63;9.70;;;;;;;2.96;58.62;96155.66;5064347;28;20047;-79
2023/02/14 10:47:28;;;;;;;15.05;8.75;;;;;;;2.97;58.54;96148.31;5067409;28;20031;-79
2023/02/14 10:50:08;;;;;;;16.83;9.15;;;;;;;2.89;58.72;96150.88;5075513;28;20392;-80
2023/02/14 10:52:42;;;;;;;17.17;10.13;;;;;;;2.96;58.43;96144.00;5066434;28;20039;-79
2023/02/14 10:55:17;;;;;;;16.05;9.73;;;;;;;2.98;58.39;96147.94;5067253;28;20065;-81
2023/02/14 10:57:45;;;;;;;17.70;9.93;;;;;;;3.05;57.97;96131.78;5049764;28;20028;-81
2023/02/14 11:00:31;;;;;;;15.13;9.50;;;;;;;3.04;57.60;96137.56;5066582;28;20025;-79
2023/02/14 11:02:59;;;;;;;15.43;9.05;;;;;;;3.00;57.35;96131.28;5067648;28;20511;-80
2023/02/14 11:05:38;;;;;;;15.48;8.93;;;;;;;3.08;57.22;96138.44;5065818;28;20024;-80
2023/02/14 11:08:36;;;;;;;13.95;8.70;;;;;;;3.09;56.95;96140.00;5067272;28;20149;-79
2023/02/14 11:11:23;;;;;;;16.45;10.02;;;;;;;3.08;56.75;96131.06;5061090;28;20040;-80
2023/02/14 11:13:48;;;;;;;17.67;9.32;;;;;;;3.08;56.73;96127.56;5067033;28;20039;-81
2023/02/14 11:16:34;;;;;;;13.77;8.75;;;;;;;3.03;56.53;96122.41;5068023;28;20099;-80
2023/02/14 11:19:07;;;;;;;14.15;8.57;;;;;;;2.97;56.57;96132.00;5065654;28;20078;-80
2023/02/14 11:21:38;;;;;;;14.43;8.88;;;;;;;2.97;56.95;96126.56;5067002;28;20060;-80
2023/02/14 11:24:25;;;;;;;16.27;9.82;;;;;;;3.09;56.85;96123.69;5067454;28;20040;-79
2023/02/14 11:26:54;;;;;;;13.35;9.05;;;;;;;3.16;56.30;96124.63;5064700;28;20943;-81
2023/02/14 11:29:25;;;;;;;13.38;9.13;;;;;;;3.20;55.74;96120.03;5066010;28;20028;-79
2023/02/14 11:31:51;;;;;;;13.88;9.25;;;;;;;3.32;55.65;96107.41;5064828;28;20032;-81
2023/02/14 11:34:24;;;;;;;12.70;8.00;;;;;;;3.39;54.95;96102.91;5065383;28;20465;-78
2023/02/14 11:36:49;;;;;;;16.25;9.02;;;;;;;3.44;54.89;96104.53;5066119;28;20077;-80
2023/02/14 11:39:33;;;;;;;17.00;8.98;;;;;;;3.51;54.56;96101.94;5066186;28;20028;-80
2023/02/14 11:42:05;;;;;;;;;;;;;;;3.57;54.04;96102.44;5066792;28;20048;-80
2023/02/14 11:44:31;;;;;;;;;;;;;;;3.69;54.07;96096.81;5049154;28;19919;-79
2023/02/14 11:46:57;;;;;;;;;;;;;;;3.71;53.65;96092.56;5070166;28;20312;-80
2023/02/14 11:49:26;;;;;;;;;;;;;;;3.79;53.33;96098.13;5066477;28;19977;-80
2023/02/14 11:51:51;;;;;;;;;;;;;;;3.76;53.25;96093.41;5066461;28;19958;-80
2023/02/14 11:54:28;;;;;;;;;;;;;;;3.85;53.14;96088.50;5066056;28;19940;-80
2023/02/14 11:57:04;;;;;;;;;;;;;;;3.91;52.90;96095.22;5065419;28;19919;-79
2023/02/14 11:59:37;;;;;;;;;;;;;;;3.98;52.61;96087.94;5067572;28;19919;-79